Fort Montgomery, New York
Current Conditions -  °F | °C
As of 7:45 PM on Monday 20 Oct 2014 (Local Time) from KSWF Reporting Station
Scattered Clouds Scattered Clouds  
Wind Chill: 50°   Ceiling: Unl
Heat Index: 50°   Visibility: 10mi
Dew Point: 39°   Wind: 0mph
Humidity: 66%   Direction: NA
Pressure: 29.97"   Gusts: NA
Location:  41.34°N, 73.99°W
Report Text: KSWF 202345Z 00000KT 10SM SCT100 10/04 A2997
Loading
Personal Weather Stations






























Interactive Weather Map
Tropical Storm Tracking
New forecast layout! Learn more

10-Day Weather Forecast

Advertisements
Track Severe Weather on mobile